sensor_id;sensor_type;location;lat;lon;timestamp;pressure;altitude;pressure_sealevel;temperature;humidity
9717;BME280;4897;43.570;27.832;2023-05-02T00:01:19;99649.56;;;9.34;100.00
9717;BME280;4897;43.570;27.832;2023-05-02T00:03:46;99635.03;;;9.38;100.00
9717;BME280;4897;43.570;27.832;2023-05-02T00:06:13;99635.94;;;9.26;100.00
9717;BME280;4897;43.570;27.832;2023-05-02T00:08:42;99652.25;;;9.34;100.00
9717;BME280;4897;43.570;27.832;2023-05-02T00:11:08;99648.31;;;9.27;100.00
9717;BME280;4897;43.570;27.832;2023-05-02T00:13:35;99654.69;;;9.24;100.00
9717;BME280;4897;43.570;27.832;2023-05-02T00:16:03;99638.72;;;9.12;100.00
9717;BME280;4897;43.570;27.832;2023-05-02T00:18:30;99605.81;;;8.75;100.00
9717;BME280;4897;43.570;27.832;2023-05-02T00:20:57;99661.97;;;9.10;100.00
9717;BME280;4897;43.570;27.832;2023-05-02T00:23:23;99636.06;;;8.86;100.00
9717;BME280;4897;43.570;27.832;2023-05-02T00:25:52;99661.66;;;9.02;100.00
9717;BME280;4897;43.570;27.832;2023-05-02T00:28:18;99660.94;;;9.00;100.00
9717;BME280;4897;43.570;27.832;2023-05-02T00:30:45;99649.09;;;8.91;100.00
9717;BME280;4897;43.570;27.832;2023-05-02T00:33:13;99640.03;;;8.81;100.00
9717;BME280;4897;43.570;27.832;2023-05-02T00:35:40;99566.00;;;8.09;100.00
9717;BME280;4897;43.570;27.832;2023-05-02T00:38:07;99668.63;;;8.92;100.00
9717;BME280;4897;43.570;27.832;2023-05-02T00:40:44;99673.97;;;8.92;100.00
9717;BME280;4897;43.570;27.832;2023-05-02T00:43:13;99572.00;;;8.25;100.00
9717;BME280;4897;43.570;27.832;2023-05-02T00:45:41;99559.50;;;8.13;100.00
9717;BME280;4897;43.570;27.832;2023-05-02T00:48:09;99687.91;;;8.82;100.00
9717;BME280;4897;43.570;27.832;2023-05-02T00:50:38;99663.16;;;8.80;100.00
9717;BME280;4897;43.570;27.832;2023-05-02T00:53:06;99669.91;;;8.73;100.00
9717;BME280;4897;43.570;27.832;2023-05-02T00:55:33;99659.00;;;8.64;100.00
9717;BME280;4897;43.570;27.832;2023-05-02T00:58:01;99673.31;;;8.75;100.00
9717;BME280;4897;43.570;27.832;2023-05-02T01:00:38;99682.38;;;8.73;100.00
9717;BME280;4897;43.570;27.832;2023-05-02T01:03:16;99660.50;;;8.55;100.00
9717;BME280;4897;43.570;27.832;2023-05-02T01:05:55;99680.56;;;8.73;100.00
9717;BME280;4897;43.570;27.832;2023-05-02T01:08:33;99672.88;;;8.69;100.00
9717;BME280;4897;43.570;27.832;2023-05-02T01:11:13;99672.16;;;8.67;100.00
9717;BME280;4897;43.570;27.832;2023-05-02T01:13:42;99669.34;;;8.56;100.00
9717;BME280;4897;43.570;27.832;2023-05-02T01:16:11;99665.81;;;8.55;100.00
9717;BME280;4897;43.570;27.832;2023-05-02T01:18:41;99666.16;;;8.51;100.00
9717;BME280;4897;43.570;27.832;2023-05-02T01:21:09;99654.75;;;8.36;100.00
9717;BME280;4897;43.570;27.832;2023-05-02T01:23:45;99666.34;;;8.35;100.00
9717;BME280;4897;43.570;27.832;2023-05-02T01:26:16;99651.03;;;8.25;100.00
9717;BME280;4897;43.570;27.832;2023-05-02T01:29:01;99664.72;;;8.33;100.00
9717;BME280;4897;43.570;27.832;2023-05-02T01:31:31;99629.50;;;8.15;100.00
9717;BME280;4897;43.570;27.832;2023-05-02T01:34:00;99663.91;;;8.32;100.00
9717;BME280;4897;43.570;27.832;2023-05-02T01:36:29;99662.59;;;8.25;100.00
9717;BME280;4897;43.570;27.832;2023-05-02T01:38:58;99661.06;;;8.21;100.00
9717;BME280;4897;43.570;27.832;2023-05-02T01:41:27;99654.66;;;8.11;100.00
9717;BME280;4897;43.570;27.832;2023-05-02T01:43:55;99656.56;;;8.09;100.00
9717;BME280;4897;43.570;27.832;2023-05-02T01:46:25;99621.22;;;7.93;100.00
9717;BME280;4897;43.570;27.832;2023-05-02T01:48:52;99639.38;;;8.00;100.00
9717;BME280;4897;43.570;27.832;2023-05-02T01:51:21;99656.75;;;8.06;100.00
9717;BME280;4897;43.570;27.832;2023-05-02T01:53:51;99650.34;;;7.96;100.00
9717;BME280;4897;43.570;27.832;2023-05-02T01:56:19;99659.41;;;8.06;100.00
9717;BME280;4897;43.570;27.832;2023-05-02T01:58:47;99644.16;;;7.95;100.00
9717;BME280;4897;43.570;27.832;2023-05-02T02:01:16;99653.53;;;8.01;100.00
9717;BME280;4897;43.570;27.832;2023-05-02T02:03:45;99631.78;;;7.82;100.00
9717;BME280;4897;43.570;27.832;2023-05-02T02:06:13;99658.66;;;8.04;100.00
9717;BME280;4897;43.570;27.832;2023-05-02T02:08:41;99674.09;;;7.99;100.00
9717;BME280;4897;43.570;27.832;2023-05-02T02:11:11;99665.56;;;7.94;100.00
9717;BME280;4897;43.570;27.832;2023-05-02T02:13:44;99660.53;;;7.89;100.00
9717;BME280;4897;43.570;27.832;2023-05-02T02:16:20;99586.84;;;7.51;100.00
9717;BME280;4897;43.570;27.832;2023-05-02T02:18:53;99635.66;;;7.76;100.00
9717;BME280;4897;43.570;27.832;2023-05-02T02:21:22;99498.56;;;6.91;100.00
9717;BME280;4897;43.570;27.832;2023-05-02T02:23:52;99653.72;;;7.85;100.00
9717;BME280;4897;43.570;27.832;2023-05-02T02:26:22;99665.69;;;7.78;100.00
9717;BME280;4897;43.570;27.832;2023-05-02T02:28:49;99660.31;;;7.80;100.00
9717;BME280;4897;43.570;27.832;2023-05-02T02:31:16;99619.69;;;7.50;100.00
9717;BME280;4897;43.570;27.832;2023-05-02T02:33:43;99647.69;;;7.69;100.00
9717;BME280;4897;43.570;27.832;2023-05-02T02:36:19;99666.56;;;7.79;100.00
9717;BME280;4897;43.570;27.832;2023-05-02T02:38:51;99661.47;;;7.76;100.00
9717;BME280;4897;43.570;27.832;2023-05-02T02:41:26;99671.69;;;7.82;100.00
9717;BME280;4897;43.570;27.832;2023-05-02T02:43:59;99654.69;;;7.70;100.00
9717;BME280;4897;43.570;27.832;2023-05-02T02:46:42;99669.63;;;7.73;100.00
9717;BME280;4897;43.570;27.832;2023-05-02T02:49:20;99676.97;;;7.69;100.00
9717;BME280;4897;43.570;27.832;2023-05-02T02:51:59;99656.94;;;7.50;100.00
9717;BME280;4897;43.570;27.832;2023-05-02T02:54:32;99644.09;;;7.01;100.00
9717;BME280;4897;43.570;27.832;2023-05-02T02:57:05;99678.88;;;7.53;100.00
9717;BME280;4897;43.570;27.832;2023-05-02T02:59:36;99651.78;;;7.34;100.00
9717;BME280;4897;43.570;27.832;2023-05-02T03:02:07;99671.41;;;7.46;100.00
9717;BME280;4897;43.570;27.832;2023-05-02T03:04:38;99541.03;;;6.78;100.00
9717;BME280;4897;43.570;27.832;2023-05-02T03:07:08;99684.03;;;7.56;100.00
9717;BME280;4897;43.570;27.832;2023-05-02T03:09:41;99578.00;;;7.09;100.00
9717;BME280;4897;43.570;27.832;2023-05-02T03:12:09;99663.41;;;7.46;100.00
9717;BME280;4897;43.570;27.832;2023-05-02T03:14:37;99687.91;;;7.65;100.00
9717;BME280;4897;43.570;27.832;2023-05-02T03:17:04;99640.91;;;7.37;100.00
9717;BME280;4897;43.570;27.832;2023-05-02T03:19:35;99664.94;;;7.50;100.00
9717;BME280;4897;43.570;27.832;2023-05-02T03:22:10;99702.69;;;7.83;100.00
9717;BME280;4897;43.570;27.832;2023-05-02T03:24:36;99675.41;;;7.79;100.00
9717;BME280;4897;43.570;27.832;2023-05-02T03:27:03;99613.84;;;7.45;100.00
9717;BME280;4897;43.570;27.832;2023-05-02T03:29:30;99703.38;;;7.99;100.00
9717;BME280;4897;43.570;27.832;2023-05-02T03:31:57;99581.94;;;7.31;100.00
9717;BME280;4897;43.570;27.832;2023-05-02T03:34:24;99691.53;;;8.17;100.00
9717;BME280;4897;43.570;27.832;2023-05-02T03:36:51;99688.56;;;8.22;100.00
9717;BME280;4897;43.570;27.832;2023-05-02T03:39:19;99670.22;;;8.17;100.00
9717;BME280;4897;43.570;27.832;2023-05-02T03:41:46;99703.34;;;8.40;100.00
9717;BME280;4897;43.570;27.832;2023-05-02T03:44:13;99728.22;;;8.53;100.00
9717;BME280;4897;43.570;27.832;2023-05-02T03:46:40;99720.84;;;8.56;100.00
9717;BME280;4897;43.570;27.832;2023-05-02T03:49:07;99722.47;;;8.59;100.00
9717;BME280;4897;43.570;27.832;2023-05-02T03:51:34;99724.06;;;8.61;100.00
9717;BME280;4897;43.570;27.832;2023-05-02T03:54:01;99677.47;;;8.54;100.00
9717;BME280;4897;43.570;27.832;2023-05-02T03:56:30;99720.91;;;8.94;100.00
9717;BME280;4897;43.570;27.832;2023-05-02T03:58:56;99737.53;;;9.10;100.00
9717;BME280;4897;43.570;27.832;2023-05-02T04:01:23;99735.00;;;9.09;100.00
9717;BME280;4897;43.570;27.832;2023-05-02T04:03:51;99718.88;;;8.98;100.00
9717;BME280;4897;43.570;27.832;2023-05-02T04:06:18;99661.59;;;8.78;100.00
9717;BME280;4897;43.570;27.832;2023-05-02T04:08:45;99714.28;;;9.12;100.00
9717;BME280;4897;43.570;27.832;2023-05-02T04:11:11;99676.19;;;8.98;100.00
9717;BME280;4897;43.570;27.832;2023-05-02T04:13:40;99721.41;;;9.37;100.00
9717;BME280;4897;43.570;27.832;2023-05-02T04:16:07;99561.13;;;8.53;100.00
9717;BME280;4897;43.570;27.832;2023-05-02T04:18:34;99720.63;;;9.47;100.00
9717;BME280;4897;43.570;27.832;2023-05-02T04:21:01;99694.53;;;9.27;100.00
9717;BME280;4897;43.570;27.832;2023-05-02T04:23:28;99746.44;;;9.72;100.00
9717;BME280;4897;43.570;27.832;2023-05-02T04:25:55;99742.38;;;9.79;100.00
9717;BME280;4897;43.570;27.832;2023-05-02T04:28:22;99524.91;;;8.63;100.00
9717;BME280;4897;43.570;27.832;2023-05-02T04:30:51;99747.00;;;10.01;100.00
9717;BME280;4897;43.570;27.832;2023-05-02T04:33:18;99738.28;;;10.22;100.00
9717;BME280;4897;43.570;27.832;2023-05-02T04:35:45;99633.84;;;9.78;100.00
9717;BME280;4897;43.570;27.832;2023-05-02T04:38:12;99697.97;;;10.25;100.00
9717;BME280;4897;43.570;27.832;2023-05-02T04:40:42;99740.72;;;10.84;100.00
9717;BME280;4897;43.570;27.832;2023-05-02T04:43:13;99729.69;;;10.99;100.00
9717;BME280;4897;43.570;27.832;2023-05-02T04:45:40;99736.66;;;11.24;100.00
9717;BME280;4897;43.570;27.832;2023-05-02T04:48:08;99732.16;;;11.36;100.00
9717;BME280;4897;43.570;27.832;2023-05-02T04:50:35;99745.69;;;11.45;100.00
9717;BME280;4897;43.570;27.832;2023-05-02T04:53:03;99739.84;;;11.51;100.00
9717;BME280;4897;43.570;27.832;2023-05-02T04:55:30;99672.16;;;11.16;100.00
9717;BME280;4897;43.570;27.832;2023-05-02T04:57:57;99737.19;;;11.73;100.00
9717;BME280;4897;43.570;27.832;2023-05-02T05:00:24;99646.63;;;11.34;100.00
9717;BME280;4897;43.570;27.832;2023-05-02T05:02:51;99727.91;;;11.88;100.00
9717;BME280;4897;43.570;27.832;2023-05-02T05:05:21;99737.84;;;12.20;100.00
9717;BME280;4897;43.570;27.832;2023-05-02T05:07:50;99740.47;;;12.31;100.00
9717;BME280;4897;43.570;27.832;2023-05-02T05:10:17;99740.63;;;12.50;100.00
9717;BME280;4897;43.570;27.832;2023-05-02T05:12:44;99733.13;;;12.64;100.00
9717;BME280;4897;43.570;27.832;2023-05-02T05:15:11;99751.69;;;12.88;100.00
9717;BME280;4897;43.570;27.832;2023-05-02T05:17:38;99741.88;;;12.98;100.00
9717;BME280;4897;43.570;27.832;2023-05-02T05:20:07;99743.41;;;13.12;100.00
9717;BME280;4897;43.570;27.832;2023-05-02T05:22:39;99709.84;;;13.27;100.00
9717;BME280;4897;43.570;27.832;2023-05-02T05:25:06;99723.75;;;13.62;100.00
9717;BME280;4897;43.570;27.832;2023-05-02T05:27:34;99732.16;;;13.88;100.00
9717;BME280;4897;43.570;27.832;2023-05-02T05:30:01;99718.16;;;13.94;100.00
9717;BME280;4897;43.570;27.832;2023-05-02T05:32:28;99748.59;;;14.34;100.00
9717;BME280;4897;43.570;27.832;2023-05-02T05:34:55;99745.63;;;14.56;100.00
9717;BME280;4897;43.570;27.832;2023-05-02T05:37:22;99743.34;;;14.90;100.00
9717;BME280;4897;43.570;27.832;2023-05-02T05:39:51;99743.09;;;15.58;99.68
9717;BME280;4897;43.570;27.832;2023-05-02T05:42:18;99727.63;;;16.77;89.16
9717;BME280;4897;43.570;27.832;2023-05-02T05:44:45;99703.09;;;17.65;74.91
9717;BME280;4897;43.570;27.832;2023-05-02T05:47:11;99735.44;;;18.98;65.44
9717;BME280;4897;43.570;27.832;2023-05-02T05:49:38;99734.84;;;19.75;60.58
9717;BME280;4897;43.570;27.832;2023-05-02T05:52:05;99734.75;;;20.38;55.88
9717;BME280;4897;43.570;27.832;2023-05-02T05:54:32;99734.38;;;21.17;52.81
9717;BME280;4897;43.570;27.832;2023-05-02T05:57:01;99728.72;;;21.56;49.89
9717;BME280;4897;43.570;27.832;2023-05-02T05:59:28;99741.88;;;21.53;48.93
9717;BME280;4897;43.570;27.832;2023-05-02T06:01:55;99733.41;;;20.88;49.16
9717;BME280;4897;43.570;27.832;2023-05-02T06:04:22;99740.94;;;19.85;50.91
9717;BME280;4897;43.570;27.832;2023-05-02T06:06:49;99713.75;;;18.98;52.30
9717;BME280;4897;43.570;27.832;2023-05-02T06:09:18;99751.19;;;18.95;52.43
9717;BME280;4897;43.570;27.832;2023-05-02T06:11:45;99731.53;;;18.69;51.89
9717;BME280;4897;43.570;27.832;2023-05-02T06:14:14;99743.38;;;18.60;53.36
9717;BME280;4897;43.570;27.832;2023-05-02T06:16:43;99741.84;;;18.73;51.01
9717;BME280;4897;43.570;27.832;2023-05-02T06:19:11;99738.13;;;18.74;50.96
9717;BME280;4897;43.570;27.832;2023-05-02T06:21:38;99717.28;;;18.59;50.49
9717;BME280;4897;43.570;27.832;2023-05-02T06:24:07;99731.84;;;18.66;50.15
9717;BME280;4897;43.570;27.832;2023-05-02T06:26:34;99736.59;;;18.88;50.20
9717;BME280;4897;43.570;27.832;2023-05-02T06:29:01;99740.69;;;18.92;48.55
9717;BME280;4897;43.570;27.832;2023-05-02T06:31:31;99747.97;;;18.99;49.24
9717;BME280;4897;43.570;27.832;2023-05-02T06:33:58;99736.97;;;18.93;48.42
9717;BME280;4897;43.570;27.832;2023-05-02T06:36:25;99746.13;;;19.08;47.91
9717;BME280;4897;43.570;27.832;2023-05-02T06:38:54;99739.66;;;19.17;47.74
9717;BME280;4897;43.570;27.832;2023-05-02T06:41:21;99742.88;;;19.21;48.06
9717;BME280;4897;43.570;27.832;2023-05-02T06:43:48;99741.03;;;19.29;49.44
9717;BME280;4897;43.570;27.832;2023-05-02T06:46:15;99753.22;;;19.41;46.97
9717;BME280;4897;43.570;27.832;2023-05-02T06:48:46;99708.34;;;19.06;47.04
9717;BME280;4897;43.570;27.832;2023-05-02T06:51:13;99727.97;;;19.25;46.31
9717;BME280;4897;43.570;27.832;2023-05-02T06:53:40;99760.34;;;19.42;44.69
9717;BME280;4897;43.570;27.832;2023-05-02T06:56:07;99755.59;;;19.36;43.81
9717;BME280;4897;43.570;27.832;2023-05-02T06:58:34;99736.97;;;19.25;44.09
9717;BME280;4897;43.570;27.832;2023-05-02T07:01:01;99745.41;;;19.46;45.35
9717;BME280;4897;43.570;27.832;2023-05-02T07:03:28;99743.69;;;19.61;44.82
9717;BME280;4897;43.570;27.832;2023-05-02T07:05:57;99749.09;;;19.77;44.53
9717;BME280;4897;43.570;27.832;2023-05-02T07:08:24;99755.50;;;19.84;45.29
9717;BME280;4897;43.570;27.832;2023-05-02T07:10:51;99771.13;;;19.82;43.93
9717;BME280;4897;43.570;27.832;2023-05-02T07:13:18;99766.19;;;19.78;44.75
9717;BME280;4897;43.570;27.832;2023-05-02T07:15:45;99737.19;;;19.78;44.42
9717;BME280;4897;43.570;27.832;2023-05-02T07:18:12;99768.38;;;19.90;42.73
9717;BME280;4897;43.570;27.832;2023-05-02T07:20:39;99749.44;;;19.74;43.28
9717;BME280;4897;43.570;27.832;2023-05-02T07:23:08;99771.44;;;19.87;44.28
9717;BME280;4897;43.570;27.832;2023-05-02T07:25:35;99759.41;;;19.90;43.58
9717;BME280;4897;43.570;27.832;2023-05-02T07:28:05;99764.00;;;19.73;43.01
9717;BME280;4897;43.570;27.832;2023-05-02T07:30:32;99751.44;;;19.80;43.85
9717;BME280;4897;43.570;27.832;2023-05-02T07:32:59;99750.75;;;19.86;44.04
9717;BME280;4897;43.570;27.832;2023-05-02T07:35:26;99755.25;;;20.10;44.40
9717;BME280;4897;43.570;27.832;2023-05-02T07:37:53;99750.91;;;20.32;43.54
9717;BME280;4897;43.570;27.832;2023-05-02T07:40:22;99744.91;;;20.44;41.67
9717;BME280;4897;43.570;27.832;2023-05-02T07:42:49;99761.59;;;20.64;41.67
9717;BME280;4897;43.570;27.832;2023-05-02T07:45:16;99766.38;;;20.62;40.56
9717;BME280;4897;43.570;27.832;2023-05-02T07:47:44;99758.63;;;20.82;39.75
9717;BME280;4897;43.570;27.832;2023-05-02T07:50:11;99753.13;;;21.12;39.00
9717;BME280;4897;43.570;27.832;2023-05-02T07:52:38;99741.16;;;22.67;37.53
9717;BME280;4897;43.570;27.832;2023-05-02T07:55:06;99760.00;;;25.36;34.75
9717;BME280;4897;43.570;27.832;2023-05-02T07:57:34;99759.09;;;27.09;31.99
9717;BME280;4897;43.570;27.832;2023-05-02T08:00:02;99744.97;;;27.61;30.88
9717;BME280;4897;43.570;27.832;2023-05-02T08:02:29;99764.13;;;28.83;30.25
9717;BME280;4897;43.570;27.832;2023-05-02T08:04:56;99743.28;;;28.87;29.46
9717;BME280;4897;43.570;27.832;2023-05-02T08:07:23;99715.25;;;28.31;29.88
9717;BME280;4897;43.570;27.832;2023-05-02T08:09:49;99765.63;;;28.50;29.77
9717;BME280;4897;43.570;27.832;2023-05-02T08:12:17;99735.44;;;28.07;29.76
9717;BME280;4897;43.570;27.832;2023-05-02T08:14:45;99765.84;;;27.44;30.38
9717;BME280;4897;43.570;27.832;2023-05-02T08:17:12;99755.47;;;26.84;31.16
9717;BME280;4897;43.570;27.832;2023-05-02T08:19:39;99726.59;;;27.06;30.84
9717;BME280;4897;43.570;27.832;2023-05-02T08:22:06;99755.22;;;27.97;30.31
9717;BME280;4897;43.570;27.832;2023-05-02T08:24:33;99739.69;;;29.58;28.70
9717;BME280;4897;43.570;27.832;2023-05-02T08:27:00;99746.13;;;30.21;28.12
9717;BME280;4897;43.570;27.832;2023-05-02T08:29:28;99659.84;;;30.65;28.02
9717;BME280;4897;43.570;27.832;2023-05-02T08:32:00;99739.41;;;30.17;27.38
9717;BME280;4897;43.570;27.832;2023-05-02T08:34:27;99723.28;;;28.80;27.84
9717;BME280;4897;43.570;27.832;2023-05-02T08:36:54;99762.53;;;25.83;30.67
9717;BME280;4897;43.570;27.832;2023-05-02T08:39:23;99750.53;;;24.52;33.95
9717;BME280;4897;43.570;27.832;2023-05-02T08:41:50;99737.75;;;24.72;35.05
9717;BME280;4897;43.570;27.832;2023-05-02T08:44:17;99718.75;;;25.51;34.66
9717;BME280;4897;43.570;27.832;2023-05-02T08:46:48;99728.50;;;28.22;31.22
9717;BME280;4897;43.570;27.832;2023-05-02T08:49:18;99731.91;;;30.52;28.92
9717;BME280;4897;43.570;27.832;2023-05-02T08:51:48;99733.69;;;31.43;29.31
9717;BME280;4897;43.570;27.832;2023-05-02T08:54:16;99688.69;;;32.02;28.86
9717;BME280;4897;43.570;27.832;2023-05-02T08:56:44;99706.75;;;32.26;27.41
9717;BME280;4897;43.570;27.832;2023-05-02T08:59:11;99736.25;;;32.59;26.95
9717;BME280;4897;43.570;27.832;2023-05-02T09:01:40;99737.81;;;32.33;26.45
9717;BME280;4897;43.570;27.832;2023-05-02T09:04:10;99742.16;;;32.24;26.77
9717;BME280;4897;43.570;27.832;2023-05-02T09:06:39;99699.72;;;30.98;27.13
9717;BME280;4897;43.570;27.832;2023-05-02T09:09:06;99716.94;;;32.04;26.30
9717;BME280;4897;43.570;27.832;2023-05-02T09:11:33;99741.81;;;32.86;25.90
9717;BME280;4897;43.570;27.832;2023-05-02T09:13:59;99739.06;;;32.21;26.88
9717;BME280;4897;43.570;27.832;2023-05-02T09:16:29;99718.06;;;32.03;27.55
9717;BME280;4897;43.570;27.832;2023-05-02T09:19:06;99720.09;;;32.99;26.44
9717;BME280;4897;43.570;27.832;2023-05-02T09:21:38;99727.41;;;33.42;26.99
9717;BME280;4897;43.570;27.832;2023-05-02T09:24:14;99738.53;;;34.11;26.16
9717;BME280;4897;43.570;27.832;2023-05-02T09:26:42;99752.22;;;33.91;26.07
9717;BME280;4897;43.570;27.832;2023-05-02T09:29:09;99744.63;;;34.70;25.22
9717;BME280;4897;43.570;27.832;2023-05-02T09:31:36;99734.81;;;34.47;25.06
9717;BME280;4897;43.570;27.832;2023-05-02T09:34:10;99742.28;;;35.08;25.16
9717;BME280;4897;43.570;27.832;2023-05-02T09:36:47;99736.78;;;35.69;24.67
9717;BME280;4897;43.570;27.832;2023-05-02T09:39:17;99729.25;;;35.64;24.18
9717;BME280;4897;43.570;27.832;2023-05-02T09:41:45;99733.31;;;34.91;24.63
9717;BME280;4897;43.570;27.832;2023-05-02T09:44:13;99749.50;;;31.97;26.57
9717;BME280;4897;43.570;27.832;2023-05-02T09:46:45;99751.69;;;32.77;26.14
9717;BME280;4897;43.570;27.832;2023-05-02T09:49:15;99712.97;;;32.39;25.88
9717;BME280;4897;43.570;27.832;2023-05-02T09:51:46;99713.69;;;32.07;26.02
9717;BME280;4897;43.570;27.832;2023-05-02T09:54:22;99711.38;;;32.64;25.94
9717;BME280;4897;43.570;27.832;2023-05-02T09:57:00;99732.69;;;34.12;24.75
9717;BME280;4897;43.570;27.832;2023-05-02T09:59:28;99717.41;;;32.83;24.92
9717;BME280;4897;43.570;27.832;2023-05-02T10:01:55;99745.78;;;32.95;25.23
9717;BME280;4897;43.570;27.832;2023-05-02T10:04:24;99718.56;;;33.77;24.90
9717;BME280;4897;43.570;27.832;2023-05-02T10:06:53;99735.06;;;35.17;23.33
9717;BME280;4897;43.570;27.832;2023-05-02T10:09:22;99724.50;;;35.04;23.25
9717;BME280;4897;43.570;27.832;2023-05-02T10:11:51;99738.44;;;35.29;23.61
9717;BME280;4897;43.570;27.832;2023-05-02T10:14:22;99704.38;;;34.72;23.40
9717;BME280;4897;43.570;27.832;2023-05-02T10:16:59;99715.44;;;34.52;23.43
9717;BME280;4897;43.570;27.832;2023-05-02T10:19:29;99718.31;;;34.87;23.50
9717;BME280;4897;43.570;27.832;2023-05-02T10:22:01;99725.41;;;34.01;24.36
9717;BME280;4897;43.570;27.832;2023-05-02T10:24:32;99728.38;;;33.95;24.05
9717;BME280;4897;43.570;27.832;2023-05-02T10:26:59;99708.56;;;34.85;23.30
9717;BME280;4897;43.570;27.832;2023-05-02T10:29:28;99713.38;;;35.24;22.80
9717;BME280;4897;43.570;27.832;2023-05-02T10:31:56;99715.06;;;35.96;22.28
9717;BME280;4897;43.570;27.832;2023-05-02T10:34:24;99699.47;;;36.64;22.21
9717;BME280;4897;43.570;27.832;2023-05-02T10:36:54;99567.34;;;34.51;22.81
9717;BME280;4897;43.570;27.832;2023-05-02T10:39:27;99723.69;;;35.64;22.88
9717;BME280;4897;43.570;27.832;2023-05-02T10:41:55;99718.38;;;35.43;22.58
9717;BME280;4897;43.570;27.832;2023-05-02T10:44:31;99729.81;;;35.71;23.10
9717;BME280;4897;43.570;27.832;2023-05-02T10:49:49;99735.19;;;34.61;23.55
9717;BME280;4897;43.570;27.832;2023-05-02T10:52:28;99722.72;;;34.78;23.07
9717;BME280;4897;43.570;27.832;2023-05-02T10:55:16;99714.69;;;34.15;24.15
9717;BME280;4897;43.570;27.832;2023-05-02T10:58:18;99722.75;;;33.16;24.11
9717;BME280;4897;43.570;27.832;2023-05-02T11:00:46;99724.38;;;32.64;24.60
9717;BME280;4897;43.570;27.832;2023-05-02T11:03:13;99707.25;;;32.23;25.29
9717;BME280;4897;43.570;27.832;2023-05-02T11:06:04;99717.63;;;33.03;24.89
9717;BME280;4897;43.570;27.832;2023-05-02T11:08:32;99702.31;;;33.54;24.65
9717;BME280;4897;43.570;27.832;2023-05-02T11:14:00;99723.25;;;34.65;23.62
9717;BME280;4897;43.570;27.832;2023-05-02T11:17:06;99722.25;;;34.29;24.03
9717;BME280;4897;43.570;27.832;2023-05-02T11:22:39;99708.91;;;33.48;24.07
9717;BME280;4897;43.570;27.832;2023-05-02T11:25:36;99713.75;;;33.62;24.09
9717;BME280;4897;43.570;27.832;2023-05-02T11:28:05;99720.09;;;33.58;24.12
9717;BME280;4897;43.570;27.832;2023-05-02T11:30:42;99724.69;;;33.79;24.67
9717;BME280;4897;43.570;27.832;2023-05-02T11:33:16;99712.47;;;33.80;24.10
9717;BME280;4897;43.570;27.832;2023-05-02T11:35:46;99717.47;;;34.20;23.96
9717;BME280;4897;43.570;27.832;2023-05-02T11:38:21;99717.06;;;33.01;24.09
9717;BME280;4897;43.570;27.832;2023-05-02T11:40:50;99705.63;;;33.24;23.99
9717;BME280;4897;43.570;27.832;2023-05-02T11:43:19;99719.81;;;33.54;24.01
9717;BME280;4897;43.570;27.832;2023-05-02T11:45:48;99711.47;;;32.96;24.36
9717;BME280;4897;43.570;27.832;2023-05-02T11:48:16;99714.34;;;33.69;23.83
9717;BME280;4897;43.570;27.832;2023-05-02T11:50:45;99673.66;;;34.37;23.23
9717;BME280;4897;43.570;27.832;2023-05-02T11:53:14;99711.00;;;34.56;23.99
9717;BME280;4897;43.570;27.832;2023-05-02T11:55:46;99690.25;;;33.07;24.38
9717;BME280;4897;43.570;27.832;2023-05-02T11:58:14;99686.31;;;33.34;24.31
9717;BME280;4897;43.570;27.832;2023-05-02T12:00:44;99702.28;;;33.22;24.54
9717;BME280;4897;43.570;27.832;2023-05-02T12:03:27;99626.44;;;31.45;25.42
9717;BME280;4897;43.570;27.832;2023-05-02T12:05:54;99694.97;;;31.43;25.92
9717;BME280;4897;43.570;27.832;2023-05-02T12:08:23;99705.88;;;31.49;26.04
9717;BME280;4897;43.570;27.832;2023-05-02T12:10:52;99713.41;;;31.54;26.14
9717;BME280;4897;43.570;27.832;2023-05-02T12:13:22;99689.09;;;31.06;26.36
9717;BME280;4897;43.570;27.832;2023-05-02T12:15:51;99684.75;;;31.60;25.83
9717;BME280;4897;43.570;27.832;2023-05-02T12:18:19;99722.91;;;31.96;25.89
9717;BME280;4897;43.570;27.832;2023-05-02T12:20:52;99683.06;;;32.36;26.13
9717;BME280;4897;43.570;27.832;2023-05-02T12:23:22;99573.38;;;31.86;25.74
9717;BME280;4897;43.570;27.832;2023-05-02T12:25:51;99710.09;;;32.28;25.28
9717;BME280;4897;43.570;27.832;2023-05-02T12:28:18;99715.94;;;32.10;25.54
9717;BME280;4897;43.570;27.832;2023-05-02T12:30:49;99722.03;;;32.99;25.03
9717;BME280;4897;43.570;27.832;2023-05-02T12:33:18;99711.47;;;32.96;25.02
9717;BME280;4897;43.570;27.832;2023-05-02T12:35:45;99722.41;;;33.08;24.99
9717;BME280;4897;43.570;27.832;2023-05-02T12:38:16;99698.78;;;32.78;24.94
9717;BME280;4897;43.570;27.832;2023-05-02T12:40:49;99718.09;;;31.70;25.76
9717;BME280;4897;43.570;27.832;2023-05-02T12:43:17;99710.53;;;31.32;25.69
9717;BME280;4897;43.570;27.832;2023-05-02T12:45:44;99709.03;;;31.25;26.41
9717;BME280;4897;43.570;27.832;2023-05-02T12:48:20;99693.59;;;30.96;26.06
9717;BME280;4897;43.570;27.832;2023-05-02T12:50:48;99716.16;;;30.25;26.90
9717;BME280;4897;43.570;27.832;2023-05-02T12:53:16;99701.19;;;30.09;26.71
9717;BME280;4897;43.570;27.832;2023-05-02T12:55:44;99712.28;;;30.26;26.73
9717;BME280;4897;43.570;27.832;2023-05-02T12:58:11;99718.72;;;30.54;26.35
9717;BME280;4897;43.570;27.832;2023-05-02T13:00:40;99721.56;;;29.62;26.95
9717;BME280;4897;43.570;27.832;2023-05-02T13:03:14;99727.03;;;30.43;26.69
9717;BME280;4897;43.570;27.832;2023-05-02T13:05:43;99710.66;;;30.64;26.27
9717;BME280;4897;43.570;27.832;2023-05-02T13:08:10;99694.47;;;31.46;25.40
9717;BME280;4897;43.570;27.832;2023-05-02T13:10:38;99552.38;;;29.51;26.12
9717;BME280;4897;43.570;27.832;2023-05-02T13:13:08;99696.94;;;30.69;25.70
9717;BME280;4897;43.570;27.832;2023-05-02T13:15:35;99688.84;;;31.58;25.08
9717;BME280;4897;43.570;27.832;2023-05-02T13:18:02;99713.94;;;31.89;24.86
9717;BME280;4897;43.570;27.832;2023-05-02T13:20:29;99696.69;;;32.20;24.75
9717;BME280;4897;43.570;27.832;2023-05-02T13:22:56;99687.59;;;32.68;24.49
9717;BME280;4897;43.570;27.832;2023-05-02T13:25:23;99713.06;;;32.44;24.60
9717;BME280;4897;43.570;27.832;2023-05-02T13:27:52;99682.00;;;31.82;24.58
9717;BME280;4897;43.570;27.832;2023-05-02T13:30:19;99673.00;;;32.29;24.19